Time;durP1;ratioP1;P1;durP2;ratioP2;P2;SDS_P1;SDS_P2;PMS_P1;PMS_P2;Temp;Humidity;BMP_temperature;BMP_pressure;BME280_temperature;BME280_humidity;BME280_pressure;Samples;Min_cycle;Max_cycle;Signal;HPM_P1;HPM_P2
2023/04/09 00:00:36;;;;;;;1.70;1.55;;;;;;;13.19;100.00;101293.88;2071073;28;20045;-80
2023/04/09 00:02:00;;;;;;;0.93;0.80;;;;;;;13.21;100.00;101293.00;2070572;28;20050;-80
2023/04/09 00:03:22;;;;;;;1.17;0.68;;;;;;;13.21;100.00;101293.00;2066480;28;20057;-80
2023/04/09 00:04:44;;;;;;;1.05;0.77;;;;;;;13.20;100.00;101288.56;2077433;28;20042;-80
2023/04/09 00:06:07;;;;;;;0.68;0.68;;;;;;;13.18;100.00;101292.97;2073074;28;20136;-80
2023/04/09 00:07:29;;;;;;;4.20;0.77;;;;;;;13.16;100.00;101289.41;2065025;28;20085;-80
2023/04/09 00:08:52;;;;;;;1.75;0.70;;;;;;;13.16;100.00;101284.09;2062124;28;20080;-80
2023/04/09 00:10:14;;;;;;;2.53;2.13;;;;;;;13.16;100.00;101292.94;2059560;28;20039;-80
2023/04/09 00:11:36;;;;;;;3.30;1.02;;;;;;;13.15;100.00;101287.63;2067964;28;20207;-79
2023/04/09 00:12:58;;;;;;;3.25;0.95;;;;;;;13.14;100.00;101286.72;2064952;28;20057;-80
2023/04/09 00:14:20;;;;;;;1.17;0.90;;;;;;;13.13;100.00;101286.69;2077408;28;20536;-80
2023/04/09 00:15:43;;;;;;;0.40;0.40;;;;;;;13.12;100.00;101288.50;2070301;28;20056;-79
2023/04/09 00:17:05;;;;;;;2.05;0.80;;;;;;;13.08;100.00;101289.25;2070587;28;20507;-79
2023/04/09 00:18:28;;;;;;;3.40;1.33;;;;;;;13.08;100.00;101293.66;2069552;28;20072;-80
2023/04/09 00:19:49;;;;;;;0.47;0.47;;;;;;;13.08;100.00;101297.22;2075080;28;20510;-80
2023/04/09 00:21:12;;;;;;;1.35;1.25;;;;;;;13.08;100.00;101296.31;2059306;28;20600;-80
2023/04/09 00:22:33;;;;;;;1.02;0.95;;;;;;;13.08;100.00;101291.03;2065462;28;20042;-80
2023/04/09 00:23:55;;;;;;;0.80;0.77;;;;;;;13.08;100.00;101293.66;2075625;28;20393;-79
2023/04/09 00:25:17;;;;;;;1.80;1.25;;;;;;;13.08;100.00;101289.25;2070229;28;20045;-79
2023/04/09 00:26:39;;;;;;;4.90;0.95;;;;;;;13.07;100.00;101276.88;2076125;28;20077;-79
2023/04/09 00:28:01;;;;;;;1.77;1.10;;;;;;;13.09;100.00;101274.25;2077371;28;20850;-79
2023/04/09 00:29:23;;;;;;;0.40;0.40;;;;;;;13.06;100.00;101277.75;2085211;28;20037;-79
2023/04/09 00:30:46;;;;;;;2.03;0.98;;;;;;;13.01;100.00;101284.75;2073086;28;20351;-80
2023/04/09 00:32:08;;;;;;;1.02;0.70;;;;;;;13.00;100.00;101287.38;2075159;28;20041;-79
2023/04/09 00:33:31;;;;;;;1.23;0.70;;;;;;;12.98;100.00;101290.03;2073608;28;20060;-79
2023/04/09 00:34:52;;;;;;;0.43;0.43;;;;;;;12.99;100.00;101282.97;2065879;28;20371;-80
2023/04/09 00:36:15;;;;;;;0.52;0.52;;;;;;;13.00;100.00;101279.41;2069979;28;20107;-79
2023/04/09 00:37:36;;;;;;;1.10;0.38;;;;;;;13.01;100.00;101281.19;2062423;28;20047;-79
2023/04/09 00:38:59;;;;;;;1.65;1.17;;;;;;;13.03;100.00;101275.06;2076530;28;20061;-79
2023/04/09 00:40:21;;;;;;;0.73;0.73;;;;;;;13.05;100.00;101278.63;2059545;28;20035;-79
2023/04/09 00:41:42;;;;;;;0.20;0.20;;;;;;;13.07;100.00;101286.59;2068645;28;20057;-79
2023/04/09 00:43:05;;;;;;;1.75;1.42;;;;;;;13.07;100.00;101284.81;2069645;28;20045;-79
2023/04/09 00:44:27;;;;;;;2.15;1.13;;;;;;;13.08;100.00;101281.31;2060538;28;20498;-78
2023/04/09 00:45:50;;;;;;;1.17;1.08;;;;;;;13.12;100.00;101276.97;2061122;28;20442;-78
2023/04/09 00:47:12;;;;;;;2.38;1.05;;;;;;;13.12;100.00;101272.59;2067106;28;20061;-78
2023/04/09 00:48:35;;;;;;;0.95;0.43;;;;;;;13.15;100.00;101277.00;2061891;28;20046;-78
2023/04/09 00:49:56;;;;;;;0.70;0.60;;;;;;;13.13;100.00;101274.34;2058983;28;20053;-78
2023/04/09 00:51:19;;;;;;;1.27;0.47;;;;;;;13.11;100.00;101278.72;2060540;28;20058;-78
2023/04/09 00:52:41;;;;;;;0.35;0.35;;;;;;;13.11;100.00;101277.81;2070061;28;20555;-79
2023/04/09 00:54:04;;;;;;;1.15;0.82;;;;;;;13.11;100.00;101267.22;2062053;28;20129;-78
2023/04/09 00:55:27;;;;;;;1.10;0.57;;;;;;;13.12;100.00;101267.28;2083594;28;20052;-78
2023/04/09 00:56:50;;;;;;;1.05;0.73;;;;;;;13.12;100.00;101269.94;2068941;28;20042;-78
2023/04/09 00:58:13;;;;;;;1.20;0.88;;;;;;;13.11;100.00;101272.53;2074294;28;20053;-78
2023/04/09 00:59:34;;;;;;;0.80;0.80;;;;;;;13.09;100.00;101276.91;2077009;28;20145;-79
2023/04/09 01:00:57;;;;;;;0.80;0.80;;;;;;;13.07;100.00;101279.53;2069984;28;20054;-78
2023/04/09 01:02:20;;;;;;;1.90;1.27;;;;;;;13.02;100.00;101283.88;2075897;28;20150;-78
2023/04/09 01:03:42;;;;;;;3.58;0.57;;;;;;;12.99;100.00;101280.31;2077908;28;20069;-78
2023/04/09 01:05:05;;;;;;;0.80;0.80;;;;;;;12.95;100.00;101278.47;2069983;28;20457;-78
2023/04/09 01:06:36;;;;;;;1.10;0.73;;;;;;;12.93;100.00;101274.94;2071050;28;20042;-78
2023/04/09 01:08:09;;;;;;;0.57;0.57;;;;;;;12.92;100.00;101266.09;2074617;28;20099;-78
2023/04/09 01:09:37;;;;;;;3.42;1.58;;;;;;;12.93;100.00;101280.22;2071644;28;20533;-79
2023/04/09 01:11:07;;;;;;;1.48;1.35;;;;;;;12.95;100.00;101283.75;2076285;28;20045;-79
2023/04/09 01:12:36;;;;;;;1.42;0.90;;;;;;;12.97;100.00;101287.34;2071289;28;20038;-78
2023/04/09 01:14:05;;;;;;;0.28;0.28;;;;;;;12.97;100.00;101282.94;2070651;28;20054;-78
2023/04/09 01:15:33;;;;;;;1.77;1.17;;;;;;;12.97;100.00;101280.28;2063111;28;20047;-79
2023/04/09 01:17:00;;;;;;;1.17;1.08;;;;;;;12.96;100.00;101277.59;2070052;28;20057;-80
2023/04/09 01:18:30;;;;;;;2.10;1.33;;;;;;;12.94;100.00;101280.22;2070737;28;20062;-79
2023/04/09 01:20:00;;;;;;;3.28;1.88;;;;;;;12.90;100.00;101275.75;2067610;28;20069;-80
2023/04/09 01:21:30;;;;;;;0.85;0.73;;;;;;;12.86;100.00;101284.53;2069719;28;21286;-78
2023/04/09 01:23:02;;;;;;;3.65;0.43;;;;;;;12.83;100.00;101278.28;2073238;28;20071;-79
2023/04/09 01:24:37;;;;;;;1.95;0.95;;;;;;;12.74;100.00;101273.75;2069666;28;20088;-79
2023/04/09 01:26:07;;;;;;;1.00;0.70;;;;;;;12.71;100.00;101277.25;2069545;28;20053;-80
2023/04/09 01:27:47;;;;;;;0.93;0.65;;;;;;;12.67;100.00;101267.47;2071123;28;20046;-79
2023/04/09 01:29:15;;;;;;;3.30;1.20;;;;;;;12.63;100.00;101270.94;2070889;28;20688;-78
2023/04/09 01:30:37;;;;;;;0.22;0.22;;;;;;;12.60;100.00;101270.88;2067407;28;20137;-78
2023/04/09 01:32:01;;;;;;;;;;;;;;;12.57;100.00;101267.31;2075868;28;20052;-78
2023/04/09 01:33:24;;;;;;;1.38;1.23;;;;;;;12.52;100.00;101261.94;2069278;28;20008;-79
2023/04/09 01:34:48;;;;;;;1.80;0.60;;;;;;;12.50;100.00;101258.38;2075623;28;20485;-79
2023/04/09 01:36:11;;;;;;;0.55;0.32;;;;;;;12.51;100.00;101256.63;2070114;28;20093;-78
2023/04/09 01:37:33;;;;;;;2.83;1.23;;;;;;;12.52;100.00;101259.31;2067363;28;20450;-79
2023/04/09 01:38:57;;;;;;;0.82;0.38;;;;;;;12.53;100.00;101258.44;2067119;28;20058;-80
2023/04/09 01:40:18;;;;;;;2.00;1.17;;;;;;;12.55;100.00;101253.16;2067204;28;20046;-79
2023/04/09 01:41:42;;;;;;;1.48;0.63;;;;;;;12.56;100.00;101246.97;2069650;28;20100;-79
2023/04/09 01:43:06;;;;;;;3.70;0.95;;;;;;;12.55;100.00;101254.03;2067514;28;20038;-79
2023/04/09 01:44:30;;;;;;;1.05;0.93;;;;;;;12.54;100.00;101246.94;2083846;28;20066;-79
2023/04/09 01:45:54;;;;;;;1.90;1.67;;;;;;;12.53;100.00;101249.59;2072139;28;20046;-79
2023/04/09 01:47:15;;;;;;;1.77;1.38;;;;;;;12.51;100.00;101248.69;2067354;28;20038;-79
2023/04/09 01:48:39;;;;;;;1.15;0.55;;;;;;;12.51;100.00;101249.56;2069823;28;20149;-79
2023/04/09 01:50:01;;;;;;;0.28;0.20;;;;;;;12.52;100.00;101245.16;2061590;28;20499;-79
2023/04/09 01:51:25;;;;;;;3.95;1.35;;;;;;;12.51;100.00;101248.69;2067036;28;20075;-79
2023/04/09 01:52:48;;;;;;;1.55;0.35;;;;;;;12.49;100.00;101246.00;2070093;28;20050;-79
2023/04/09 01:54:09;;;;;;;0.85;0.73;;;;;;;12.47;100.00;101249.50;2078146;28;20080;-79
2023/04/09 01:55:32;;;;;;;1.92;0.77;;;;;;;12.46;100.00;101250.38;2072330;28;20045;-79
2023/04/09 01:56:57;;;;;;;0.32;0.32;;;;;;;12.43;100.00;101247.66;2072267;28;20038;-79
2023/04/09 01:58:19;;;;;;;0.47;0.47;;;;;;;12.38;100.00;101243.19;2066027;28;20061;-79
2023/04/09 01:59:42;;;;;;;12.70;1.27;;;;;;;12.38;100.00;101248.50;2067009;28;20057;-78
2023/04/09 02:01:22;;;;;;;1.38;0.73;;;;;;;12.37;100.00;101254.66;2076522;28;20545;-78
2023/04/09 02:02:54;;;;;;;0.55;0.55;;;;;;;12.32;100.00;101248.41;2080330;28;20041;-77
2023/04/09 02:04:21;;;;;;;1.40;1.30;;;;;;;12.27;100.00;101243.91;2073564;28;20088;-77
2023/04/09 02:05:50;;;;;;;2.58;1.15;;;;;;;12.24;100.00;101243.84;2077373;28;20139;-78
2023/04/09 02:07:25;;;;;;;0.70;0.70;;;;;;;12.23;100.00;101242.03;2077451;28;20080;-78
2023/04/09 02:08:49;;;;;;;0.75;0.75;;;;;;;12.21;100.00;101244.66;2065004;28;20522;-78
2023/04/09 02:10:16;;;;;;;2.90;1.60;;;;;;;12.20;100.00;101245.56;2068147;28;20753;-78
2023/04/09 02:11:40;;;;;;;0.93;0.90;;;;;;;12.18;100.00;101243.72;2068072;28;20115;-78
2023/04/09 02:13:05;;;;;;;1.15;0.88;;;;;;;12.16;100.00;101245.44;2064059;28;20706;-78
2023/04/09 02:14:29;;;;;;;1.65;1.45;;;;;;;12.12;100.00;101236.59;2061094;28;20121;-79
2023/04/09 02:15:53;;;;;;;0.60;0.32;;;;;;;12.13;100.00;101240.13;2067562;28;20858;-78
2023/04/09 02:17:15;;;;;;;1.92;0.32;;;;;;;12.13;100.00;101237.47;2057888;28;20038;-78
2023/04/09 02:18:38;;;;;;;1.60;0.47;;;;;;;12.15;100.00;101243.66;2071075;28;20045;-78
2023/04/09 02:19:59;;;;;;;1.35;1.00;;;;;;;12.13;100.00;101235.72;2066871;28;20049;-79
2023/04/09 02:21:22;;;;;;;2.42;1.42;;;;;;;12.09;100.00;101227.69;2070624;28;20578;-78
2023/04/09 02:22:44;;;;;;;0.55;0.40;;;;;;;12.04;100.00;101227.63;2064656;28;20457;-78
2023/04/09 02:24:06;;;;;;;0.93;0.82;;;;;;;11.98;100.00;101232.81;2061584;28;20522;-78
2023/04/09 02:25:28;;;;;;;0.43;0.28;;;;;;;11.94;100.00;101225.69;2073412;28;20140;-79
2023/04/09 02:26:51;;;;;;;1.23;1.13;;;;;;;11.92;100.00;101224.75;2069473;28;20102;-79
2023/04/09 02:28:13;;;;;;;0.85;0.52;;;;;;;11.91;100.00;101223.88;2071185;28;20053;-78
2023/04/09 02:29:36;;;;;;;0.30;0.20;;;;;;;11.88;100.00;101218.50;2071852;28;20610;-79
2023/04/09 02:30:59;;;;;;;0.90;0.47;;;;;;;11.89;100.00;101224.69;2070293;28;20041;-79
2023/04/09 02:32:22;;;;;;;3.20;1.17;;;;;;;11.89;100.00;101230.00;2078272;28;20064;-78
2023/04/09 02:33:44;;;;;;;7.95;1.65;;;;;;;11.89;100.00;101220.31;2068516;28;20050;-79
2023/04/09 02:35:07;;;;;;;0.80;0.38;;;;;;;11.91;100.00;101222.97;2061119;28;20042;-79
2023/04/09 02:36:29;;;;;;;0.52;0.45;;;;;;;11.90;100.00;101218.53;2060819;28;20101;-79
2023/04/09 02:37:51;;;;;;;1.20;0.88;;;;;;;11.89;100.00;101222.94;2058452;28;20054;-79
2023/04/09 02:39:13;;;;;;;1.50;0.93;;;;;;;11.90;100.00;101229.13;2069159;28;20077;-79
2023/04/09 02:40:35;;;;;;;0.77;0.63;;;;;;;11.91;100.00;101231.81;2070248;28;20042;-79
2023/04/09 02:41:57;;;;;;;0.05;0.03;;;;;;;11.94;100.00;101228.34;2076620;28;20072;-79
2023/04/09 02:43:22;;;;;;;1.38;0.50;;;;;;;11.96;100.00;101234.53;2072030;28;20132;-79
2023/04/09 02:44:44;;;;;;;2.50;0.50;;;;;;;11.98;100.00;101241.63;2066197;28;20053;-78
2023/04/09 02:46:09;;;;;;;1.08;0.55;;;;;;;12.00;100.00;101240.78;2066130;28;20145;-78
2023/04/09 02:47:31;;;;;;;0.75;0.75;;;;;;;12.03;100.00;101238.16;2066139;28;20069;-78
2023/04/09 02:48:54;;;;;;;1.38;0.93;;;;;;;12.04;100.00;101235.56;2061319;28;20586;-78
2023/04/09 02:50:17;;;;;;;3.08;1.88;;;;;;;12.06;100.00;101228.53;2067208;28;20096;-79
2023/04/09 02:51:43;;;;;;;0.80;0.63;;;;;;;12.07;100.00;101226.78;2070146;28;20081;-79
2023/04/09 02:53:06;;;;;;;0.10;0.10;;;;;;;12.08;100.00;101229.44;2060743;28;20034;-79
2023/04/09 02:54:28;;;;;;;3.35;1.02;;;;;;;12.09;100.00;101230.31;2066329;28;20377;-79
2023/04/09 02:55:51;;;;;;;0.10;0.10;;;;;;;12.12;100.00;101227.75;2076229;28;20087;-79
2023/04/09 02:57:13;;;;;;;2.33;1.27;;;;;;;12.12;100.00;101226.00;2069233;28;20460;-79
2023/04/09 02:58:35;;;;;;;0.82;0.68;;;;;;;12.16;100.00;101235.75;2060995;28;20576;-79
2023/04/09 02:59:58;;;;;;;1.70;1.33;;;;;;;12.18;100.00;101233.16;2060031;28;20140;-79
2023/04/09 03:01:21;;;;;;;0.55;0.55;;;;;;;12.19;100.00;101230.53;2050981;28;20415;-78
2023/04/09 03:02:43;;;;;;;0.55;0.55;;;;;;;12.18;100.00;101234.03;2066404;28;20472;-78
2023/04/09 03:04:04;;;;;;;0.28;0.17;;;;;;;12.16;100.00;101232.22;2067703;28;20046;-79
2023/04/09 03:05:27;;;;;;;0.98;0.90;;;;;;;12.14;100.00;101236.63;2074479;28;20107;-78
2023/04/09 03:06:50;;;;;;;1.63;1.15;;;;;;;12.13;100.00;101232.19;2071791;28;20068;-79
2023/04/09 03:08:12;;;;;;;0.52;0.38;;;;;;;12.10;100.00;101233.00;2078047;28;20098;-79
2023/04/09 03:09:35;;;;;;;1.45;1.30;;;;;;;12.08;100.00;101233.88;2073329;28;20052;-80
2023/04/09 03:10:56;;;;;;;0.82;0.57;;;;;;;12.07;100.00;101234.72;2061038;28;20047;-79
2023/04/09 03:12:18;;;;;;;0.40;0.40;;;;;;;12.07;100.00;101234.72;2072092;28;20056;-79
2023/04/09 03:13:40;;;;;;;2.90;0.80;;;;;;;12.06;100.00;101239.13;2076722;28;20049;-79
2023/04/09 03:15:03;;;;;;;0.40;0.40;;;;;;;12.08;100.00;101231.22;2072003;28;20405;-79
2023/04/09 03:16:27;;;;;;;3.38;0.68;;;;;;;12.10;100.00;101233.00;2053435;28;20530;-79
2023/04/09 03:17:50;;;;;;;0.88;0.45;;;;;;;12.12;100.00;101233.03;2064637;28;20042;-79
2023/04/09 03:19:11;;;;;;;2.17;1.38;;;;;;;12.13;100.00;101226.88;2076836;28;20045;-78
2023/04/09 03:20:33;;;;;;;2.10;1.27;;;;;;;12.15;100.00;101233.06;2077328;28;20058;-79
2023/04/09 03:21:55;;;;;;;0.40;0.40;;;;;;;12.15;100.00;101233.06;2069306;28;20050;-79
2023/04/09 03:23:21;;;;;;;3.58;0.93;;;;;;;12.12;100.00;101228.66;2071052;28;20049;-78
2023/04/09 03:24:42;;;;;;;0.30;0.30;;;;;;;12.12;100.00;101230.41;2066396;28;20077;-78
2023/04/09 03:26:06;;;;;;;1.65;0.80;;;;;;;12.10;100.00;101229.47;2060853;28;20042;-79
2023/04/09 03:27:39;;;;;;;1.55;0.70;;;;;;;12.07;100.00;101240.03;2071030;28;20054;-78
2023/04/09 03:29:01;;;;;;;0.35;0.35;;;;;;;12.03;100.00;101227.59;2066683;28;20057;-78
2023/04/09 03:30:24;;;;;;;0.73;0.73;;;;;;;12.00;100.00;101230.19;2066595;28;20564;-79
2023/04/09 03:31:48;;;;;;;0.60;0.57;;;;;;;12.01;100.00;101227.59;2063787;28;20048;-79
2023/04/09 03:33:09;;;;;;;0.68;0.68;;;;;;;12.01;100.00;101227.59;2072976;28;20572;-78
2023/04/09 03:34:52;;;;;;;0.80;0.57;;;;;;;12.00;100.00;101227.56;2071630;28;20112;-78
2023/04/09 03:36:17;;;;;;;0.63;0.57;;;;;;;12.02;100.00;101228.44;2068710;28;20049;-78
2023/04/09 03:37:55;;;;;;;0.47;0.43;;;;;;;11.98;100.00;101231.06;2067344;28;20093;-78
2023/04/09 03:39:18;;;;;;;0.65;0.40;;;;;;;11.98;100.00;101236.34;2072316;28;20049;-78
2023/04/09 03:40:41;;;;;;;0.68;0.30;;;;;;;11.98;100.00;101231.06;2068885;28;20045;-78
2023/04/09 03:42:04;;;;;;;0.55;0.38;;;;;;;11.96;100.00;101222.19;2077231;28;20505;-78
2023/04/09 03:43:36;;;;;;;5.30;0.30;;;;;;;11.96;100.00;101227.47;2070838;28;20092;-78
2023/04/09 03:44:58;;;;;;;1.08;0.77;;;;;;;11.98;100.00;101232.81;2068133;28;20111;-78
2023/04/09 03:46:31;;;;;;;0.40;0.20;;;;;;;12.01;100.00;101231.97;2070424;28;20060;-78
2023/04/09 03:47:56;;;;;;;0.25;0.22;;;;;;;12.05;100.00;101236.44;2070536;28;20049;-78
2023/04/09 03:49:19;;;;;;;0.00;0.00;;;;;;;12.06;100.00;101233.84;2076539;28;20414;-78
2023/04/09 03:50:42;;;;;;;1.33;1.23;;;;;;;12.09;100.00;101232.97;2077898;28;20049;-78
2023/04/09 03:52:08;;;;;;;1.88;1.05;;;;;;;12.10;100.00;101232.13;2071226;28;20045;-78
2023/04/09 03:53:33;;;;;;;3.85;0.45;;;;;;;12.11;100.00;101232.16;2067148;28;20506;-78
2023/04/09 03:55:00;;;;;;;1.60;0.63;;;;;;;12.13;100.00;101229.53;2067245;28;20130;-78
2023/04/09 03:56:22;;;;;;;1.50;0.70;;;;;;;12.16;100.00;101229.56;2060262;28;20054;-78
2023/04/09 03:57:45;;;;;;;0.43;0.40;;;;;;;12.18;100.00;101228.75;2062203;28;20033;-78
2023/04/09 03:59:12;;;;;;;0.20;0.20;;;;;;;12.20;100.00;101229.66;2068900;28;20058;-77
2023/04/09 04:00:37;;;;;;;0.22;0.22;;;;;;;12.22;100.00;101240.25;2067368;28;20050;-78
2023/04/09 04:02:17;;;;;;;2.53;1.48;;;;;;;12.21;100.00;101243.75;2073155;28;20100;-78
2023/04/09 04:03:47;;;;;;;0.63;0.63;;;;;;;12.21;100.00;101234.06;2069843;28;20697;-78
2023/04/09 04:05:17;;;;;;;0.30;0.30;;;;;;;12.21;100.00;101235.81;2070304;28;20053;-78
2023/04/09 04:06:42;;;;;;;2.17;2.03;;;;;;;12.21;100.00;101234.06;2060588;28;20042;-78
2023/04/09 04:08:24;;;;;;;0.45;0.45;;;;;;;12.20;100.00;101232.31;2064758;28;20064;-79
2023/04/09 04:09:46;;;;;;;0.38;0.38;;;;;;;12.20;100.00;101234.06;2067442;28;20034;-79
2023/04/09 04:11:12;;;;;;;0.35;0.28;;;;;;;12.21;100.00;101233.19;2062902;28;20077;-79
2023/04/09 04:12:35;;;;;;;2.50;0.90;;;;;;;12.24;100.00;101236.78;2065506;28;20536;-78
2023/04/09 04:13:58;;;;;;;1.25;0.98;;;;;;;12.27;100.00;101238.59;2074832;28;20052;-78
2023/04/09 04:15:20;;;;;;;0.93;0.22;;;;;;;12.29;100.00;101248.31;2060851;28;20049;-78
2023/04/09 04:16:48;;;;;;;0.38;0.38;;;;;;;12.30;100.00;101243.94;2063651;28;20431;-78
2023/04/09 04:18:13;;;;;;;1.30;0.68;;;;;;;12.28;100.00;101243.00;2068338;28;20445;-78
2023/04/09 04:19:44;;;;;;;1.30;0.90;;;;;;;12.29;100.00;101248.31;2071303;28;20143;-79
2023/04/09 04:21:13;;;;;;;0.47;0.47;;;;;;;12.32;100.00;101247.50;2062132;28;20137;-78
2023/04/09 04:22:39;;;;;;;1.65;1.38;;;;;;;12.35;100.00;101253.72;2068117;28;20502;-77
2023/04/09 04:24:01;;;;;;;0.60;0.50;;;;;;;12.39;100.00;101249.38;2066772;28;20053;-78
2023/04/09 04:25:24;;;;;;;0.63;0.52;;;;;;;12.42;100.00;101249.41;2067134;28;20104;-79
2023/04/09 04:26:47;;;;;;;0.73;0.55;;;;;;;12.47;100.00;101255.66;2061905;28;20046;-79
2023/04/09 04:28:12;;;;;;;0.28;0.28;;;;;;;12.51;100.00;101248.69;2060265;28;20046;-78
2023/04/09 04:29:38;;;;;;;2.63;1.48;;;;;;;12.56;100.00;101249.63;2066473;28;20061;-78
2023/04/09 04:31:13;;;;;;;1.08;1.00;;;;;;;12.59;100.00;101249.69;2071122;28;20549;-78
2023/04/09 04:32:37;;;;;;;0.13;0.13;;;;;;;12.62;100.00;101249.72;2074502;28;20092;-78
2023/04/09 04:34:03;;;;;;;1.27;0.75;;;;;;;12.65;100.00;101257.72;2079117;28;20045;-78
2023/04/09 04:35:26;;;;;;;1.20;1.10;;;;;;;12.67;100.00;101255.97;2083943;28;20048;-79
2023/04/09 04:36:52;;;;;;;1.00;0.43;;;;;;;12.68;100.00;101263.94;2078635;28;20057;-79
2023/04/09 04:38:14;;;;;;;1.65;1.48;;;;;;;12.71;100.00;101257.81;2076221;28;20046;-79
2023/04/09 04:39:37;;;;;;;0.32;0.32;;;;;;;12.75;100.00;101262.28;2075836;28;20084;-79
2023/04/09 04:41:06;;;;;;;0.95;0.77;;;;;;;12.79;100.00;101264.13;2077432;28;20114;-79
2023/04/09 04:42:30;;;;;;;0.20;0.20;;;;;;;12.84;100.00;101262.44;2070947;28;20145;-80
2023/04/09 04:43:56;;;;;;;0.65;0.65;;;;;;;12.89;100.00;101268.69;2073993;28;20056;-79
2023/04/09 04:45:20;;;;;;;0.65;0.40;;;;;;;12.93;100.00;101269.63;2062271;28;20047;-79
2023/04/09 04:46:46;;;;;;;0.93;0.85;;;;;;;12.97;100.00;101269.69;2064768;28;20042;-79
2023/04/09 04:48:08;;;;;;;0.28;0.17;;;;;;;13.02;100.00;101275.03;2075793;28;20048;-79
2023/04/09 04:49:30;;;;;;;0.85;0.43;;;;;;;13.04;100.00;101273.31;2070017;28;20078;-79
2023/04/09 04:50:57;;;;;;;0.63;0.22;;;;;;;13.06;100.00;101274.22;2072746;28;20042;-79
2023/04/09 04:52:23;;;;;;;0.38;0.30;;;;;;;13.06;100.00;101268.94;2070382;28;20045;-79
2023/04/09 04:53:48;;;;;;;1.90;1.42;;;;;;;13.06;100.00;101276.88;2064503;28;20046;-80
2023/04/09 04:55:10;;;;;;;7.00;1.27;;;;;;;13.05;100.00;101278.63;2062132;28;20096;-79
2023/04/09 04:56:33;;;;;;;0.38;0.20;;;;;;;13.05;100.00;101270.69;2076880;28;20268;-79
2023/04/09 04:58:00;;;;;;;0.30;0.30;;;;;;;13.07;100.00;101281.28;2072656;28;20046;-80
2023/04/09 04:59:27;;;;;;;5.35;2.38;;;;;;;13.05;100.00;101275.09;2069341;28;20053;-80
2023/04/09 05:00:57;;;;;;;0.52;0.52;;;;;;;13.04;100.00;101278.59;2067597;28;20121;-79
2023/04/09 05:02:20;;;;;;;0.15;0.15;;;;;;;13.05;100.00;101275.09;2067107;28;20050;-80
2023/04/09 05:04:02;;;;;;;;;;;;;;;13.04;100.00;101283.91;2074308;28;20045;-79
2023/04/09 05:05:29;;;;;;;0.30;0.25;;;;;;;13.05;100.00;101286.59;2072139;28;19921;-79
2023/04/09 05:06:54;;;;;;;1.13;0.63;;;;;;;13.11;100.00;101288.44;2064956;28;20716;-79
2023/04/09 05:08:18;;;;;;;2.58;1.48;;;;;;;13.16;100.00;101278.81;2070161;28;20406;-79
2023/04/09 05:09:45;;;;;;;1.60;0.95;;;;;;;13.24;100.00;101279.81;2062273;28;20184;-80
2023/04/09 05:11:07;;;;;;;0.95;0.88;;;;;;;13.33;100.00;101281.66;2064082;28;20510;-79
2023/04/09 05:12:33;;;;;;;2.53;0.73;;;;;;;13.41;100.00;101278.25;2068502;28;20052;-79
2023/04/09 05:13:56;;;;;;;0.22;0.22;;;;;;;13.51;100.00;101279.25;2067857;28;20046;-79
2023/04/09 05:15:19;;;;;;;1.85;0.98;;;;;;;13.61;100.00;101280.25;2075568;28;20041;-79
2023/04/09 05:16:42;;;;;;;1.85;1.13;;;;;;;13.68;100.00;101271.47;2077757;28;20079;-79
2023/04/09 05:18:05;;;;;;;0.20;0.20;;;;;;;13.73;100.00;101275.97;2083959;28;20079;-79
2023/04/09 05:19:27;;;;;;;1.00;0.90;;;;;;;13.79;100.00;101277.78;2078212;28;20416;-79
2023/04/09 05:20:56;;;;;;;1.05;0.82;;;;;;;13.80;100.00;101272.50;2076110;28;20096;-79
2023/04/09 05:22:22;;;;;;;0.65;0.22;;;;;;;13.83;100.00;101283.16;2075431;28;20465;-79
2023/04/09 05:23:45;;;;;;;0.50;0.25;;;;;;;13.84;100.00;101286.72;2075754;28;20413;-79
2023/04/09 05:25:09;;;;;;;0.68;0.65;;;;;;;13.84;100.00;101287.59;2069621;28;20058;-78
2023/04/09 05:26:34;;;;;;;0.25;0.17;;;;;;;13.86;100.00;101287.59;2062293;28;20577;-79
2023/04/09 05:27:57;;;;;;;0.93;0.52;;;;;;;13.85;100.00;101291.09;2073922;28;20429;-79
2023/04/09 05:29:21;;;;;;;0.75;0.75;;;;;;;13.86;100.00;101287.59;2070345;28;20045;-78
2023/04/09 05:30:46;;;;;;;1.63;0.80;;;;;;;13.88;100.00;101294.72;2077347;28;20046;-78
2023/04/09 05:32:09;;;;;;;0.88;0.40;;;;;;;13.88;100.00;101294.72;2070864;28;20560;-79
2023/04/09 05:33:37;;;;;;;0.40;0.40;;;;;;;13.90;100.00;101295.63;2084176;28;20049;-79
2023/04/09 05:35:02;;;;;;;0.75;0.30;;;;;;;13.94;100.00;101294.75;2072257;28;20046;-78
2023/04/09 05:36:27;;;;;;;0.82;0.75;;;;;;;13.98;100.00;101296.56;2069847;28;20046;-78
2023/04/09 05:37:50;;;;;;;1.08;0.90;;;;;;;14.04;100.00;101293.13;2066914;28;20042;-79
2023/04/09 05:39:12;;;;;;;0.68;0.68;;;;;;;14.12;100.00;101288.75;2069343;28;20145;-79
2023/04/09 05:40:35;;;;;;;2.28;2.08;;;;;;;14.17;100.00;101296.78;2064343;28;20077;-78
2023/04/09 05:41:59;;;;;;;1.58;1.33;;;;;;;14.21;100.00;101291.50;2067583;28;20132;-78
2023/04/09 05:43:22;;;;;;;2.65;2.38;;;;;;;14.26;100.00;101292.41;2069463;28;20422;-78
2023/04/09 05:44:44;;;;;;;2.67;2.17;;;;;;;14.30;100.00;101296.91;2063796;28;20054;-78
2023/04/09 05:46:11;;;;;;;0.85;0.50;;;;;;;14.34;100.00;101293.38;2068012;28;20108;-79
2023/04/09 05:47:33;;;;;;;1.48;1.38;;;;;;;14.40;100.00;101299.66;2062458;28;20073;-78
2023/04/09 05:49:16;;;;;;;2.47;1.58;;;;;;;14.47;100.00;101307.69;2072356;28;20050;-78
2023/04/09 05:50:41;;;;;;;1.67;1.58;;;;;;;14.58;100.00;101308.66;2068027;28;20099;-78
2023/04/09 05:52:04;;;;;;;14.30;6.10;;;;;;;14.69;100.00;101308.75;2074876;28;20034;-78
2023/04/09 05:53:30;;;;;;;11.23;6.80;;;;;;;14.80;100.00;101312.38;2072322;28;20054;-78
2023/04/09 05:54:52;;;;;;;9.88;6.70;;;;;;;14.92;100.00;101311.56;2077495;28;20041;-78
2023/04/09 05:56:21;;;;;;;10.02;6.35;;;;;;;15.09;100.00;101304.59;2061819;28;20146;-78
2023/04/09 05:57:46;;;;;;;6.60;4.10;;;;;;;15.30;100.00;101306.47;2060097;28;20049;-78
2023/04/09 05:59:09;;;;;;;8.45;4.40;;;;;;;15.46;100.00;101303.91;2058551;28;20057;-78
2023/04/09 06:00:31;;;;;;;7.78;4.15;;;;;;;15.63;100.00;101311.97;2066749;28;20631;-78
2023/04/09 06:01:53;;;;;;;8.60;3.28;;;;;;;15.77;100.00;101309.34;2070636;28;20046;-78
2023/04/09 06:03:16;;;;;;;10.50;8.25;;;;;;;15.93;100.00;101306.75;2063036;28;20042;-78
2023/04/09 06:04:38;;;;;;;16.50;10.90;;;;;;;16.10;100.00;101308.56;2066745;28;20045;-78
2023/04/09 06:06:01;;;;;;;27.98;20.83;;;;;;;16.24;100.00;101304.13;2063790;28;20877;-78
2023/04/09 06:07:23;;;;;;;22.98;17.92;;;;;;;16.35;100.00;101305.91;2062224;28;20054;-78
2023/04/09 06:08:47;;;;;;;25.77;18.27;;;;;;;16.50;100.00;101307.72;2065983;28;20057;-79
2023/04/09 06:10:10;;;;;;;20.45;16.30;;;;;;;16.64;100.00;101302.41;2077799;28;20072;-78
2023/04/09 06:11:32;;;;;;;18.10;13.77;;;;;;;16.74;100.00;101301.50;2067762;28;20120;-78
2023/04/09 06:12:55;;;;;;;15.95;11.95;;;;;;;16.79;100.00;101291.75;2065724;28;20062;-78
2023/04/09 06:14:17;;;;;;;18.55;12.85;;;;;;;16.78;100.00;101297.97;2066159;28;20034;-79
2023/04/09 06:15:39;;;;;;;15.45;10.52;;;;;;;16.73;100.00;101286.41;2071657;28;20074;-78
2023/04/09 06:17:02;;;;;;;20.63;13.95;;;;;;;16.69;100.00;101285.53;2070384;28;20193;-78
2023/04/09 06:18:25;;;;;;;23.23;18.27;;;;;;;16.66;100.00;101282.88;2068407;28;20058;-78
2023/04/09 06:19:47;;;;;;;22.48;18.25;;;;;;;16.70;100.00;101276.63;2066521;28;20042;-78
2023/04/09 06:21:09;;;;;;;16.25;14.52;;;;;;;16.66;100.00;101264.22;2066214;28;20568;-78
2023/04/09 06:22:32;;;;;;;15.85;14.25;;;;;;;16.53;100.00;101269.53;2061871;28;20050;-78
2023/04/09 06:23:56;;;;;;;17.60;15.90;;;;;;;16.41;100.00;101274.84;2074991;28;20860;-78
2023/04/09 06:25:19;;;;;;;16.77;15.05;;;;;;;16.29;100.00;101265.94;2085396;28;20609;-78
2023/04/09 06:26:40;;;;;;;20.38;18.20;;;;;;;16.21;100.00;101261.53;2071773;28;20050;-78
2023/04/09 06:28:03;;;;;;;26.83;24.05;;;;;;;16.14;100.00;101267.75;2064716;28;20104;-78